createdAt,value
2022-11-22T00:00:46.109Z,-14.21
2022-11-22T00:03:50.060Z,-14.08
2022-11-22T00:06:53.835Z,-14.21
2022-11-22T00:09:57.362Z,-14.33
2022-11-22T00:13:01.430Z,-14.39
2022-11-22T00:16:05.800Z,-14.48
2022-11-22T00:19:10.805Z,-14.43
2022-11-22T00:22:14.538Z,-14.34
2022-11-22T00:25:18.221Z,-14.34
2022-11-22T00:28:21.596Z,-14.15
2022-11-22T00:31:25.625Z,-13.95
2022-11-22T00:34:29.281Z,-13.84
2022-11-22T00:37:33.272Z,-13.68
2022-11-22T00:40:36.804Z,-13.51
2022-11-22T00:43:40.621Z,-13.60
2022-11-22T00:46:43.841Z,-13.62
2022-11-22T00:49:47.857Z,-13.16
2022-11-22T00:52:51.552Z,-12.81
2022-11-22T00:55:55.563Z,-12.25
2022-11-22T00:58:59.605Z,-12.01
2022-11-22T01:02:03.516Z,-11.93
2022-11-22T01:05:08.065Z,-11.87
2022-11-22T01:08:11.820Z,-11.72
2022-11-22T01:11:17.792Z,-11.65
2022-11-22T01:14:21.812Z,-11.61
2022-11-22T01:17:25.031Z,-11.33
2022-11-22T01:20:28.947Z,-11.16
2022-11-22T01:23:33.431Z,-11.33
2022-11-22T01:26:37.536Z,-11.45
2022-11-22T01:29:41.149Z,-11.31
2022-11-22T01:32:45.772Z,-11.37
2022-11-22T01:35:49.720Z,-11.04
2022-11-22T01:38:53.991Z,-10.33
2022-11-22T01:41:57.424Z,-9.65
2022-11-22T01:45:35.682Z,-8.95
2022-11-22T01:48:52.925Z,-8.43
2022-11-22T01:52:03.021Z,-8.79
2022-11-22T01:55:11.990Z,-9.07
2022-11-22T01:58:17.185Z,-9.20
2022-11-22T02:01:21.458Z,-9.17
2022-11-22T02:04:27.332Z,-9.24
2022-11-22T02:07:42.149Z,-9.19
2022-11-22T02:10:49.608Z,-9.33
2022-11-22T02:13:54.106Z,-9.57
2022-11-22T02:16:58.170Z,-9.88
2022-11-22T02:20:01.769Z,-9.78
2022-11-22T02:23:23.630Z,-10.09
2022-11-22T02:26:30.141Z,-10.27
2022-11-22T02:29:34.398Z,-9.88
2022-11-22T02:32:37.312Z,-9.69
2022-11-22T02:35:41.777Z,-9.61
2022-11-22T02:38:45.562Z,-9.50
2022-11-22T02:41:50.197Z,-9.68
2022-11-22T02:44:53.676Z,-9.75
2022-11-22T02:48:15.000Z,-9.83
2022-11-22T02:51:20.369Z,-9.70
2022-11-22T02:54:24.532Z,-9.10
2022-11-22T02:57:27.459Z,-8.61
2022-11-22T03:00:30.749Z,-8.46
2022-11-22T03:03:34.408Z,-8.85
2022-11-22T03:06:38.060Z,-8.99
2022-11-22T03:09:41.632Z,-9.05
2022-11-22T03:12:45.677Z,-8.97
2022-11-22T03:15:49.350Z,-8.48
2022-11-22T03:18:53.304Z,-8.11
2022-11-22T03:21:56.945Z,-8.26
2022-11-22T03:25:00.241Z,-8.36
2022-11-22T03:28:03.189Z,-8.02
2022-11-22T03:31:08.365Z,-8.00
2022-11-22T03:34:15.419Z,-8.37
2022-11-22T03:37:18.818Z,-8.28
2022-11-22T03:40:21.781Z,-8.37
2022-11-22T03:43:25.447Z,-8.40
2022-11-22T03:46:29.203Z,-8.77
2022-11-22T03:49:32.790Z,-8.87
2022-11-22T03:52:35.823Z,-8.91
2022-11-22T03:55:40.183Z,-8.80
2022-11-22T03:58:43.732Z,-8.40
2022-11-22T04:01:49.937Z,-8.14
2022-11-22T04:04:53.506Z,-8.07
2022-11-22T04:07:59.571Z,-8.12
2022-11-22T04:11:03.095Z,-8.22
2022-11-22T04:14:25.156Z,-7.88
2022-11-22T04:17:48.485Z,-7.99
2022-11-22T04:21:10.185Z,-8.25
2022-11-22T04:24:32.401Z,-8.30
2022-11-22T04:27:35.921Z,-7.92
2022-11-22T04:30:58.083Z,-7.89
2022-11-22T04:34:01.998Z,-7.93
2022-11-22T04:37:06.039Z,-7.68
2022-11-22T04:40:10.930Z,-7.33
2022-11-22T04:43:42.441Z,-7.36
2022-11-22T04:46:45.653Z,-7.62
2022-11-22T04:49:49.345Z,-7.52
2022-11-22T04:52:58.284Z,-7.48
2022-11-22T04:56:01.851Z,-7.42
2022-11-22T04:59:04.926Z,-7.16
2022-11-22T05:02:08.131Z,-7.05
2022-11-22T05:05:11.825Z,-7.13
2022-11-22T05:08:15.445Z,-7.21
2022-11-22T05:11:19.371Z,-7.32
2022-11-22T05:14:22.964Z,-7.29
2022-11-22T05:17:26.901Z,-7.23
2022-11-22T05:20:30.432Z,-7.10
2022-11-22T05:23:53.495Z,-6.96
2022-11-22T05:26:57.098Z,-6.90
2022-11-22T05:30:01.046Z,-6.88
2022-11-22T05:33:04.767Z,-6.84
2022-11-22T05:36:09.623Z,-6.67
2022-11-22T05:39:12.459Z,-6.59
2022-11-22T05:42:16.465Z,-6.56
2022-11-22T05:45:20.319Z,-6.39
2022-11-22T05:48:23.955Z,-6.35
2022-11-22T05:51:34.995Z,-6.18
2022-11-22T05:54:39.120Z,-5.99
2022-11-22T05:57:42.351Z,-5.82
2022-11-22T06:00:46.480Z,-5.72
2022-11-22T06:03:50.839Z,-5.69
2022-11-22T06:06:54.397Z,-5.64
2022-11-22T06:09:58.327Z,-5.59
2022-11-22T06:13:02.164Z,-5.64
2022-11-22T06:16:07.332Z,-5.61
2022-11-22T06:19:11.418Z,-5.44
2022-11-22T06:22:14.734Z,-5.31
2022-11-22T06:25:18.769Z,-5.26
2022-11-22T06:28:22.275Z,-5.27
2022-11-22T06:31:28.326Z,-5.25
2022-11-22T06:34:32.050Z,-5.16
2022-11-22T06:37:35.645Z,-5.10
2022-11-22T06:40:39.379Z,-5.04
2022-11-22T06:43:48.623Z,-4.98
2022-11-22T06:46:52.358Z,-4.87
2022-11-22T06:49:56.303Z,-4.75
2022-11-22T06:52:59.972Z,-4.73
2022-11-22T06:56:05.794Z,-4.69
2022-11-22T06:59:10.329Z,-4.66
2022-11-22T07:02:14.731Z,-4.63
2022-11-22T07:05:25.630Z,-4.60
2022-11-22T07:08:29.950Z,-4.57
2022-11-22T07:11:35.232Z,-4.56
2022-11-22T07:14:39.153Z,-4.52
2022-11-22T07:17:42.783Z,-4.44
2022-11-22T07:20:47.787Z,-4.39
2022-11-22T07:23:53.480Z,-4.34
2022-11-22T07:26:57.415Z,-4.38
2022-11-22T07:30:01.191Z,-4.42
2022-11-22T07:33:05.119Z,-4.46
2022-11-22T07:36:19.890Z,-4.42
2022-11-22T07:39:23.647Z,-4.42
2022-11-22T07:42:27.332Z,-4.43
2022-11-22T07:45:30.891Z,-4.51
2022-11-22T07:48:33.825Z,-4.62
2022-11-22T07:51:37.767Z,-4.71
2022-11-22T07:54:40.964Z,-4.82
2022-11-22T07:57:44.991Z,-4.78
2022-11-22T08:00:48.561Z,-4.86
2022-11-22T08:03:52.688Z,-4.89
2022-11-22T08:06:56.231Z,-4.94
2022-11-22T08:09:59.738Z,-5.02
2022-11-22T08:13:03.416Z,-5.10
2022-11-22T08:16:10.449Z,-5.18
2022-11-22T08:19:17.933Z,-5.26
2022-11-22T08:22:22.208Z,-5.32
2022-11-22T08:25:25.854Z,-5.44
2022-11-22T08:28:29.708Z,-5.56
2022-11-22T08:31:33.350Z,-5.69
2022-11-22T08:34:38.188Z,-5.79
2022-11-22T08:37:42.752Z,-5.92
2022-11-22T08:40:46.817Z,-6.03
2022-11-22T08:43:51.574Z,-6.04
2022-11-22T08:46:54.992Z,-6.05
2022-11-22T08:49:59.956Z,-6.14
2022-11-22T08:53:03.808Z,-6.15
2022-11-22T08:56:10.309Z,-6.22
2022-11-22T08:59:14.033Z,-6.33
2022-11-22T09:02:17.336Z,-6.50
2022-11-22T09:05:21.478Z,-6.72
2022-11-22T09:08:24.822Z,-7.01
2022-11-22T09:11:28.891Z,-7.20
2022-11-22T09:14:32.856Z,-7.47
2022-11-22T09:17:36.880Z,-7.76
2022-11-22T09:20:40.545Z,-7.86
2022-11-22T09:23:45.669Z,-7.93
2022-11-22T09:26:49.277Z,-8.11
2022-11-22T09:29:53.030Z,-8.09
2022-11-22T09:32:56.696Z,-8.09
2022-11-22T09:36:05.695Z,-8.11
2022-11-22T09:39:10.002Z,-8.05
2022-11-22T09:42:50.666Z,-8.19
2022-11-22T09:46:12.338Z,-8.33
2022-11-22T09:49:30.317Z,-8.20
2022-11-22T09:52:51.815Z,-8.28
2022-11-22T09:55:59.522Z,-8.48
2022-11-22T09:59:12.073Z,-8.60
2022-11-22T10:02:25.358Z,-8.71
2022-11-22T10:05:39.600Z,-8.76
2022-11-22T10:09:02.104Z,-8.91
2022-11-22T10:12:14.263Z,-8.94
2022-11-22T10:15:55.398Z,-9.02
2022-11-22T10:19:06.077Z,-9.06
2022-11-22T10:22:16.385Z,-9.13
2022-11-22T10:25:23.573Z,-9.28
2022-11-22T10:28:30.143Z,-9.40
2022-11-22T10:32:01.156Z,-9.48
2022-11-22T10:35:43.723Z,-9.48
2022-11-22T10:39:12.889Z,-9.66
2022-11-22T10:42:41.808Z,-9.58
2022-11-22T10:45:50.562Z,-9.71
2022-11-22T10:49:08.943Z,-9.75
2022-11-22T10:52:27.766Z,-9.77
2022-11-22T10:55:43.029Z,-9.81
2022-11-22T10:59:12.990Z,-9.93
2022-11-22T11:02:36.413Z,-9.93
2022-11-22T11:06:15.375Z,-9.94
2022-11-22T11:12:54.358Z,-10.39
2022-11-22T11:16:01.886Z,-10.48
2022-11-22T11:19:11.566Z,-10.48
2022-11-22T11:22:42.736Z,-10.39
2022-11-22T11:25:48.376Z,-10.36
2022-11-22T11:28:53.098Z,-10.42
2022-11-22T11:32:12.031Z,-10.40
2022-11-22T11:35:16.686Z,-10.42
2022-11-22T11:38:28.483Z,-10.38
2022-11-22T11:41:37.343Z,-10.40
2022-11-22T11:44:43.939Z,-10.39
2022-11-22T11:47:47.228Z,-10.43
2022-11-22T11:50:50.131Z,-10.50
2022-11-22T11:54:12.549Z,-10.52
2022-11-22T11:57:22.256Z,-10.40
2022-11-22T12:00:28.775Z,-10.40
2022-11-22T12:03:32.504Z,-10.37
2022-11-22T12:06:36.857Z,-10.28
2022-11-22T12:09:45.529Z,-10.38
2022-11-22T12:13:01.508Z,-10.55
2022-11-22T12:16:26.897Z,-10.64
2022-11-22T12:20:11.536Z,-10.58
2022-11-22T12:23:27.165Z,-10.54
2022-11-22T12:26:31.195Z,-10.42
2022-11-22T12:29:38.155Z,-10.36
2022-11-22T12:32:55.579Z,-10.45
2022-11-22T12:35:59.115Z,-10.61
2022-11-22T12:39:05.635Z,-10.75
2022-11-22T12:42:11.243Z,-10.81
2022-11-22T12:45:29.549Z,-11.01
2022-11-22T12:49:22.195Z,-11.13
2022-11-22T12:52:30.674Z,-11.21
2022-11-22T12:55:46.793Z,-11.24
2022-11-22T12:59:16.896Z,-11.27
2022-11-22T13:02:35.336Z,-11.33
2022-11-22T13:05:45.816Z,-11.40
2022-11-22T13:09:06.938Z,-11.45
2022-11-22T13:12:14.776Z,-11.40
2022-11-22T13:15:29.762Z,-11.50
2022-11-22T13:18:39.454Z,-11.63
2022-11-22T13:22:01.507Z,-11.68
2022-11-22T13:25:40.754Z,-11.71
2022-11-22T13:28:45.785Z,-11.80
2022-11-22T13:32:24.556Z,-11.79
2022-11-22T13:35:34.002Z,-11.80
2022-11-22T13:38:37.526Z,-11.88
2022-11-22T13:41:49.730Z,-11.90
2022-11-22T13:44:56.155Z,-12.01
2022-11-22T13:47:59.824Z,-12.09
2022-11-22T13:51:03.813Z,-12.10
2022-11-22T13:54:37.619Z,-12.07
2022-11-22T13:57:42.749Z,-12.12
2022-11-22T14:00:46.879Z,-12.19
2022-11-22T14:03:49.848Z,-12.28
2022-11-22T14:07:11.680Z,-12.33
2022-11-22T14:10:57.250Z,-12.29
2022-11-22T14:14:14.681Z,-12.23
2022-11-22T14:17:48.134Z,-12.27
2022-11-22T14:21:14.958Z,-12.39
2022-11-22T14:24:21.508Z,-12.57
2022-11-22T14:27:47.529Z,-12.58
2022-11-22T14:30:54.660Z,-12.73
2022-11-22T14:34:19.569Z,-13.13
2022-11-22T14:37:35.511Z,-13.17
2022-11-22T14:40:41.430Z,-13.00
2022-11-22T14:43:46.444Z,-12.99
2022-11-22T14:47:05.589Z,-12.97
2022-11-22T14:50:35.164Z,-12.96
2022-11-22T14:53:44.516Z,-12.93
2022-11-22T14:56:48.976Z,-12.90
2022-11-22T15:00:15.994Z,-12.84
2022-11-22T15:09:10.444Z,-12.86
2022-11-22T15:09:21.190Z,-13.00
2022-11-22T15:11:12.459Z,-13.08
2022-11-22T15:14:39.823Z,-13.19
2022-11-22T15:59:40.264Z,-13.27
2022-11-22T16:02:50.968Z,-13.36
2022-11-22T16:06:08.340Z,-13.36
2022-11-22T16:09:35.359Z,-13.59
2022-11-22T16:12:39.447Z,-13.72
2022-11-22T16:15:43.452Z,-13.83
2022-11-22T16:18:49.253Z,-13.85
2022-11-22T16:22:03.076Z,-13.88
2022-11-22T16:25:29.333Z,-13.93
2022-11-22T16:28:36.175Z,-13.87
2022-11-22T16:31:41.213Z,-14.05
2022-11-22T16:34:44.789Z,-14.03
2022-11-22T16:37:48.514Z,-14.10
2022-11-22T16:40:53.325Z,-14.07
2022-11-22T16:44:02.360Z,-14.04
2022-11-22T16:47:06.299Z,-14.04
2022-11-22T16:50:17.324Z,-14.07
2022-11-22T16:53:20.943Z,-14.34
2022-11-22T16:56:27.920Z,-14.51
2022-11-22T16:59:32.212Z,-14.41
2022-11-22T17:02:37.849Z,-14.50
2022-11-22T17:05:41.752Z,-14.74
2022-11-22T17:08:46.919Z,-14.65
2022-11-22T17:11:51.415Z,-14.64
2022-11-22T17:14:55.237Z,-14.79
2022-11-22T17:17:59.084Z,-15.04
2022-11-22T17:21:02.843Z,-15.02
2022-11-22T17:24:21.225Z,-14.95
2022-11-22T17:27:24.171Z,-14.97
2022-11-22T17:30:28.041Z,-14.98
2022-11-22T17:33:30.967Z,-14.98
2022-11-22T17:36:36.502Z,-15.35
2022-11-22T17:39:40.622Z,-15.56
2022-11-22T17:42:44.684Z,-15.67
2022-11-22T17:45:47.616Z,-15.82
2022-11-22T17:48:55.357Z,-15.97
2022-11-22T17:51:58.317Z,-16.11
2022-11-22T17:55:05.217Z,-16.25
2022-11-22T17:58:09.235Z,-16.26
2022-11-22T18:01:15.758Z,-16.30
2022-11-22T18:04:19.888Z,-16.41
2022-11-22T18:07:25.095Z,-16.34
2022-11-22T18:10:28.786Z,-16.32
2022-11-22T18:13:37.479Z,-16.34
2022-11-22T18:16:41.159Z,-16.40
2022-11-22T18:19:44.854Z,-16.60
2022-11-22T18:22:48.590Z,-16.77
2022-11-22T18:25:52.468Z,-16.79
2022-11-22T18:29:26.757Z,-16.58
2022-11-22T18:32:19.540Z,-16.28
2022-11-22T18:35:24.202Z,-16.21
2022-11-22T18:38:28.386Z,-16.18
2022-11-22T18:41:31.850Z,-16.22
2022-11-22T18:44:35.399Z,-16.29
2022-11-22T18:47:38.963Z,-16.39
2022-11-22T18:50:42.625Z,-16.49
2022-11-22T18:53:45.485Z,-16.65
2022-11-22T18:56:49.251Z,-16.68
2022-11-22T18:59:52.968Z,-16.84
2022-11-22T19:02:57.862Z,-16.81
2022-11-22T19:06:05.017Z,-16.86
2022-11-22T19:09:09.665Z,-16.89
2022-11-22T19:12:13.798Z,-16.88
2022-11-22T19:15:17.775Z,-16.74
2022-11-22T19:18:21.771Z,-16.64
2022-11-22T19:21:27.524Z,-16.60
2022-11-22T19:24:31.600Z,-16.62
2022-11-22T19:27:35.589Z,-16.59
2022-11-22T19:30:42.898Z,-16.78
2022-11-22T19:33:48.872Z,-16.92
2022-11-22T19:36:52.511Z,-16.84
2022-11-22T19:39:55.427Z,-17.00
2022-11-22T19:42:59.178Z,-17.00
2022-11-22T19:46:02.867Z,-17.23
2022-11-22T19:49:09.436Z,-17.41
2022-11-22T19:52:13.055Z,-17.54
2022-11-22T19:55:16.103Z,-17.66
2022-11-22T19:58:21.263Z,-17.82
2022-11-22T20:01:26.822Z,-18.06
2022-11-22T20:04:31.073Z,-18.26
2022-11-22T20:07:35.123Z,-18.47
2022-11-22T20:10:40.434Z,-18.67
2022-11-22T20:13:46.536Z,-18.85
2022-11-22T20:16:49.897Z,-18.79
2022-11-22T20:19:52.779Z,-18.73
2022-11-22T20:22:57.650Z,-18.78
2022-11-22T20:26:07.213Z,-18.82
2022-11-22T20:29:14.481Z,-18.97
2022-11-22T20:32:18.674Z,-18.67
2022-11-22T20:35:21.971Z,-18.42
2022-11-22T20:38:25.543Z,-18.22
2022-11-22T20:41:31.099Z,-18.00
2022-11-22T20:44:34.622Z,-18.26
2022-11-22T20:47:38.160Z,-18.59
2022-11-22T20:50:41.775Z,-18.75
2022-11-22T20:53:46.140Z,-18.84
2022-11-22T20:56:48.977Z,-18.74
2022-11-22T20:59:52.891Z,-18.68
2022-11-22T21:02:55.831Z,-18.56
2022-11-22T21:05:59.784Z,-18.52
2022-11-22T21:09:02.656Z,-18.35
2022-11-22T21:12:06.200Z,-18.15
2022-11-22T21:15:09.827Z,-18.04
2022-11-22T21:18:29.158Z,-18.08
2022-11-22T21:21:33.733Z,-18.21
2022-11-22T21:24:37.758Z,-18.20
2022-11-22T21:27:41.286Z,-18.15
2022-11-22T21:30:45.673Z,-18.30
2022-11-22T21:33:49.074Z,-18.53
2022-11-22T21:36:52.361Z,-18.47
2022-11-22T21:39:55.274Z,-18.50
2022-11-22T21:42:58.449Z,-18.49
2022-11-22T21:46:01.392Z,-18.50
2022-11-22T21:49:05.276Z,-18.46
2022-11-22T21:52:08.831Z,-18.32
2022-11-22T21:55:13.036Z,-18.21
2022-11-22T21:58:17.048Z,-18.29
2022-11-22T22:01:21.124Z,-18.38
2022-11-22T22:04:24.819Z,-18.35
2022-11-22T22:10:52.480Z,-18.60
2022-11-22T22:13:57.356Z,-18.96
2022-11-22T22:17:00.640Z,-19.15
2022-11-22T22:20:04.222Z,-19.45
2022-11-22T22:23:07.496Z,-19.76
2022-11-22T22:26:14.018Z,-19.83
2022-11-22T22:29:17.354Z,-19.89
2022-11-22T22:32:21.038Z,-19.89
2022-11-22T22:35:24.659Z,-19.98
2022-11-22T22:38:29.665Z,-20.09
2022-11-22T22:41:33.315Z,-19.88
2022-11-22T22:44:37.134Z,-19.79
2022-11-22T22:47:41.122Z,-19.88
2022-11-22T22:50:45.310Z,-19.97
2022-11-22T22:53:49.245Z,-19.97
2022-11-22T22:56:52.865Z,-20.00
2022-11-22T22:59:56.859Z,-19.94
2022-11-22T23:03:00.514Z,-19.87
2022-11-22T23:06:09.222Z,-19.87
2022-11-22T23:09:13.387Z,-19.83
2022-11-22T23:12:17.788Z,-19.93
2022-11-22T23:15:38.069Z,-19.94
2022-11-22T23:18:46.206Z,-19.92
2022-11-22T23:21:49.235Z,-19.68
2022-11-22T23:24:52.388Z,-19.54
2022-11-22T23:27:55.969Z,-19.60
2022-11-22T23:31:26.422Z,-19.55
2022-11-22T23:34:31.382Z,-19.44
2022-11-22T23:37:35.308Z,-19.30
2022-11-22T23:40:38.866Z,-19.23
2022-11-22T23:43:43.833Z,-19.05
2022-11-22T23:46:46.848Z,-19.06
2022-11-22T23:49:50.689Z,-19.08
2022-11-22T23:52:57.518Z,-19.15
2022-11-22T23:56:08.831Z,-19.12
2022-11-22T23:59:13.505Z,-18.95
